createdAt,value
2019-04-22T00:01:40.138Z,63.50
2019-04-22T00:04:15.525Z,64.60
2019-04-22T00:07:05.243Z,64.70
2019-04-22T00:09:38.875Z,65.20
2019-04-22T00:12:16.506Z,66.00
2019-04-22T00:14:37.298Z,65.30
2019-04-22T00:17:18.527Z,64.80
2019-04-22T00:19:45.726Z,65.20
2019-04-22T00:22:17.929Z,64.60
2019-04-22T00:24:38.593Z,64.40
2019-04-22T00:27:14.390Z,64.00
2019-04-22T00:32:30.510Z,63.90
2019-04-22T00:35:03.915Z,63.60
2019-04-22T00:37:41.074Z,63.20
2019-04-22T00:40:07.241Z,63.20
2019-04-22T00:42:35.452Z,63.10
2019-04-22T00:45:07.946Z,62.90
2019-04-22T00:47:38.013Z,62.60
2019-04-22T00:57:42.610Z,63.00
2019-04-22T01:00:11.944Z,63.30
2019-04-22T01:02:41.636Z,63.30
2019-04-22T01:05:15.104Z,63.50
2019-04-22T01:07:35.603Z,63.60
2019-04-22T01:10:11.676Z,63.80
2019-04-22T01:12:39.607Z,63.80
2019-04-22T01:15:14.837Z,64.00
2019-04-22T01:17:44.765Z,64.00
2019-04-22T01:20:43.578Z,64.10
2019-04-22T01:22:38.361Z,64.20
2019-04-22T01:25:14.692Z,64.20
2019-04-22T01:27:39.242Z,64.80
2019-04-22T01:30:08.474Z,65.00
2019-04-22T01:32:34.053Z,65.10
2019-04-22T01:35:08.450Z,65.20
2019-04-22T01:37:46.058Z,65.90
2019-04-22T01:40:28.136Z,66.00
2019-04-22T01:42:57.576Z,66.20
2019-04-22T01:45:26.469Z,66.50
2019-04-22T01:48:10.471Z,67.80
2019-04-22T01:50:29.307Z,67.90
2019-04-22T01:53:00.939Z,67.20
2019-04-22T01:57:53.676Z,67.70
2019-04-22T02:00:15.246Z,67.90
2019-04-22T02:02:59.150Z,68.10
2019-04-22T02:05:26.792Z,68.30
2019-04-22T02:07:56.125Z,68.30
2019-04-22T02:10:34.649Z,68.60
2019-04-22T02:13:02.017Z,68.90
2019-04-22T02:15:27.844Z,68.80
2019-04-22T02:18:01.304Z,68.80
2019-04-22T02:20:26.756Z,69.20
2019-04-22T02:26:25.325Z,69.40
2019-04-22T02:36:22.861Z,69.10
2019-04-22T02:51:22.699Z,69.90
2019-04-22T02:56:27.603Z,70.00
2019-04-22T02:59:12.250Z,70.20
2019-04-22T03:04:06.798Z,70.20
2019-04-22T03:07:16.472Z,70.20
2019-04-22T03:11:25.386Z,69.30
2019-04-22T03:16:33.177Z,70.40
2019-04-22T03:19:02.493Z,70.40
2019-04-22T03:21:24.173Z,70.20
2019-04-22T03:26:35.178Z,70.50
2019-04-22T03:28:54.861Z,70.40
2019-04-22T03:35:09.674Z,69.90
2019-04-22T03:44:38.597Z,70.40
2019-04-22T03:47:11.556Z,70.60
2019-04-22T03:59:33.458Z,71.00
2019-04-22T04:07:11.540Z,70.90
2019-04-22T04:09:33.861Z,71.30
2019-04-22T04:17:02.333Z,71.30
2019-04-22T04:19:45.942Z,71.40
2019-04-22T04:22:15.939Z,71.60
2019-04-22T04:24:48.530Z,71.60
2019-04-22T04:27:34.640Z,71.40
2019-04-22T04:32:25.100Z,71.70
2019-04-22T04:34:54.542Z,71.50
2019-04-22T04:37:25.191Z,71.50
2019-04-22T04:39:43.384Z,71.30
2019-04-22T04:42:16.124Z,70.70
2019-04-22T04:44:59.203Z,69.60
2019-04-22T04:47:11.481Z,68.40
2019-04-22T04:49:48.435Z,67.40
2019-04-22T04:52:19.707Z,66.10
2019-04-22T04:54:44.502Z,64.40
2019-04-22T04:57:07.521Z,61.90
2019-04-22T05:00:03.800Z,59.40
2019-04-22T05:02:17.540Z,57.80
2019-04-22T05:05:06.816Z,56.70
2019-04-22T05:07:36.090Z,55.90
2019-04-22T05:09:59.856Z,55.80
2019-04-22T05:12:45.359Z,54.90
2019-04-22T05:15:09.074Z,55.10
2019-04-22T05:17:41.214Z,54.20
2019-04-22T05:20:05.263Z,55.10
2019-04-22T05:22:33.647Z,54.60
2019-04-22T05:25:09.144Z,53.90
2019-04-22T05:27:34.340Z,53.20
2019-04-22T05:30:19.850Z,52.60
2019-04-22T05:40:17.709Z,50.90
2019-04-22T05:42:35.624Z,50.50
2019-04-22T05:45:10.239Z,50.00
2019-04-22T05:47:42.259Z,50.00
2019-04-22T05:50:07.822Z,47.60
2019-04-22T05:52:40.459Z,46.40
2019-04-22T05:55:16.111Z,47.30
2019-04-22T05:57:42.659Z,47.00
2019-04-22T06:00:18.260Z,45.90
2019-04-22T06:05:17.504Z,44.40
2019-04-22T06:07:47.220Z,46.40
2019-04-22T06:12:43.308Z,44.40
2019-04-22T06:15:22.283Z,43.40
2019-04-22T06:17:59.022Z,43.30
2019-04-22T06:20:23.775Z,44.20
2019-04-22T06:25:27.664Z,43.80
2019-04-22T06:27:54.099Z,43.00
2019-04-22T06:30:44.029Z,42.60
2019-04-22T06:33:01.151Z,41.70
2019-04-22T06:38:15.971Z,40.40
2019-04-22T06:40:28.940Z,40.00
2019-04-22T06:45:28.821Z,37.50
2019-04-22T06:48:09.758Z,37.80
2019-04-22T06:50:38.481Z,38.30
2019-04-22T06:53:02.634Z,39.60
2019-04-22T06:55:38.985Z,37.50
2019-04-22T06:58:04.952Z,35.20
2019-04-22T07:00:36.948Z,37.10
2019-04-22T07:03:34.638Z,37.00
2019-04-22T07:05:44.574Z,37.30
2019-04-22T07:08:28.388Z,37.50
2019-04-22T07:10:51.858Z,37.60
2019-04-22T07:13:11.522Z,37.60
2019-04-22T07:18:19.813Z,40.80
2019-04-22T07:20:44.304Z,42.50
2019-04-22T07:23:24.741Z,41.60
2019-04-22T07:25:49.280Z,41.70
2019-04-22T07:28:15.801Z,42.20
2019-04-22T07:30:44.619Z,43.40
2019-04-22T07:33:30.506Z,42.30
2019-04-22T07:38:23.805Z,42.80
2019-04-22T07:40:59.505Z,42.40
2019-04-22T07:45:51.850Z,38.30
2019-04-22T07:51:07.596Z,36.70
2019-04-22T07:53:21.615Z,35.80
2019-04-22T07:55:53.272Z,35.70
2019-04-22T07:58:27.418Z,37.60
2019-04-22T08:00:57.757Z,37.90
2019-04-22T08:03:31.955Z,38.70
2019-04-22T08:06:08.669Z,39.60
2019-04-22T08:08:25.794Z,39.20
2019-04-22T08:10:57.794Z,36.50
2019-04-22T08:13:24.834Z,35.50
2019-04-22T08:16:01.199Z,34.40
2019-04-22T08:18:29.034Z,35.70
2019-04-22T08:20:58.394Z,32.10
2019-04-22T08:23:31.669Z,34.20
2019-04-22T08:25:55.706Z,33.90
2019-04-22T08:28:34.468Z,35.30
2019-04-22T08:31:02.135Z,36.60
2019-04-22T08:33:29.281Z,36.90
2019-04-22T08:36:10.489Z,37.00
2019-04-22T08:41:23.361Z,33.90
2019-04-22T08:44:18.717Z,34.30
2019-04-22T08:46:49.032Z,35.10
2019-04-22T08:49:16.154Z,34.10
2019-04-22T08:51:40.211Z,34.70
2019-04-22T08:54:05.052Z,34.30
2019-04-22T08:59:10.445Z,33.80
2019-04-22T09:01:34.348Z,34.40
2019-04-22T09:06:56.640Z,33.40
2019-04-22T09:09:06.542Z,33.10
2019-04-22T09:11:41.961Z,33.90
2019-04-22T09:14:11.218Z,32.90
2019-04-22T09:16:46.334Z,32.80
2019-04-22T09:21:43.304Z,31.80
2019-04-22T09:24:10.556Z,31.70
2019-04-22T09:26:43.596Z,31.10
2019-04-22T09:29:14.637Z,29.90
2019-04-22T09:32:01.685Z,29.80
2019-04-22T09:34:06.795Z,29.40
2019-04-22T09:36:42.062Z,29.30
2019-04-22T09:39:19.299Z,29.60
2019-04-22T09:41:48.249Z,28.60
2019-04-22T09:44:10.700Z,29.40
2019-04-22T09:46:43.912Z,30.40
2019-04-22T09:51:46.184Z,30.00
2019-04-22T09:54:21.740Z,30.00
2019-04-22T09:56:43.436Z,30.60
2019-04-22T09:59:13.976Z,30.00
2019-04-22T10:01:47.522Z,30.00
2019-04-22T10:04:10.086Z,30.40
2019-04-22T10:06:40.605Z,30.40
2019-04-22T10:09:37.336Z,29.90
2019-04-22T10:11:47.661Z,30.50
2019-04-22T10:14:18.933Z,29.80
2019-04-22T10:17:06.805Z,29.40
2019-04-22T10:19:18.340Z,29.50
2019-04-22T10:22:12.231Z,29.60
2019-04-22T10:24:17.029Z,30.10
2019-04-22T10:29:20.169Z,28.90
2019-04-22T10:31:49.411Z,28.50
2019-04-22T10:34:09.286Z,28.60
2019-04-22T10:36:25.649Z,29.30
2019-04-22T10:38:54.949Z,29.70
2019-04-22T10:41:23.510Z,29.00
2019-04-22T10:43:52.927Z,29.00
2019-04-22T10:46:22.181Z,28.50
2019-04-22T10:48:52.631Z,28.40
2019-04-22T10:51:22.335Z,28.00
2019-04-22T10:53:51.282Z,28.20
2019-04-22T10:56:21.026Z,28.30
2019-04-22T10:58:50.723Z,28.00
2019-04-22T11:01:19.395Z,28.70
2019-04-22T11:03:49.071Z,27.70
2019-04-22T11:06:19.153Z,27.90
2019-04-22T11:08:52.859Z,27.30
2019-04-22T11:11:30.105Z,27.20
2019-04-22T11:13:49.605Z,25.50
2019-04-22T11:16:19.360Z,25.40
2019-04-22T11:18:47.966Z,24.00
2019-04-22T11:21:17.999Z,23.60
2019-04-22T11:23:46.938Z,22.80
2019-04-22T11:26:15.640Z,23.70
2019-04-22T11:28:45.433Z,24.10
2019-04-22T11:31:14.739Z,24.20
2019-04-22T11:33:44.866Z,24.40
2019-04-22T11:36:15.622Z,23.30
2019-04-22T11:38:49.230Z,23.20
2019-04-22T11:41:14.830Z,23.10
2019-04-22T11:43:45.095Z,23.20
2019-04-22T11:46:15.525Z,23.70
2019-04-22T11:48:45.504Z,22.60
2019-04-22T11:51:25.981Z,22.90
2019-04-22T11:53:54.863Z,23.70
2019-04-22T11:56:23.395Z,23.40
2019-04-22T11:58:52.920Z,23.70
2019-04-22T12:01:21.976Z,22.90
2019-04-22T12:03:51.786Z,23.50
2019-04-22T12:06:22.162Z,24.10
2019-04-22T12:08:51.935Z,23.50
2019-04-22T12:11:20.780Z,24.00
2019-04-22T12:13:49.251Z,24.20
2019-04-22T12:16:19.049Z,23.50
2019-04-22T12:18:49.216Z,24.20
2019-04-22T12:21:19.266Z,24.10
2019-04-22T12:23:48.696Z,23.50
2019-04-22T12:26:19.493Z,24.30
2019-04-22T12:28:49.016Z,24.70
2019-04-22T12:31:17.932Z,24.50
2019-04-22T12:33:47.643Z,24.00
2019-04-22T12:36:16.397Z,24.30
2019-04-22T12:38:45.285Z,24.90
2019-04-22T12:41:14.507Z,25.00
2019-04-22T12:43:45.058Z,25.20
2019-04-22T12:46:16.231Z,25.60
2019-04-22T12:48:46.877Z,25.30
2019-04-22T12:51:15.481Z,24.50
2019-04-22T12:53:44.574Z,24.30
2019-04-22T12:56:15.413Z,23.90
2019-04-22T12:58:45.804Z,24.20
2019-04-22T13:01:15.165Z,24.40
2019-04-22T13:03:44.656Z,24.90
2019-04-22T13:06:14.246Z,24.00
2019-04-22T13:08:43.565Z,24.00
2019-04-22T13:11:17.541Z,24.40
2019-04-22T13:13:42.926Z,24.00
2019-04-22T13:16:13.270Z,23.60
2019-04-22T13:18:49.353Z,23.50
2019-04-22T13:21:13.086Z,22.90
2019-04-22T13:23:41.603Z,23.40
2019-04-22T13:26:10.719Z,24.20
2019-04-22T13:28:39.259Z,22.50
2019-04-22T13:31:07.981Z,23.00
2019-04-22T13:33:36.965Z,22.50
2019-04-22T13:36:05.974Z,22.50
2019-04-22T13:38:35.368Z,21.90
2019-04-22T13:41:32.917Z,21.30
2019-04-22T13:43:55.785Z,21.60
2019-04-22T13:46:24.306Z,21.50
2019-04-22T13:49:25.580Z,22.20
2019-04-22T13:52:15.431Z,22.60
2019-04-22T13:56:43.841Z,22.80
2019-04-22T13:59:04.659Z,22.60
2019-04-22T14:01:25.800Z,23.10
2019-04-22T14:03:58.899Z,23.60
2019-04-22T14:06:28.931Z,23.50
2019-04-22T14:08:59.032Z,24.20
2019-04-22T14:11:37.619Z,24.80
2019-04-22T14:13:58.796Z,24.50
2019-04-22T14:16:27.294Z,25.00
2019-04-22T14:18:56.104Z,24.10
2019-04-22T14:21:24.987Z,24.40
2019-04-22T14:23:53.757Z,24.30
2019-04-22T14:26:23.041Z,24.80
2019-04-22T14:28:51.714Z,24.20
2019-04-22T14:31:20.419Z,24.30
2019-04-22T14:33:53.560Z,24.90
2019-04-22T14:36:19.451Z,25.40
2019-04-22T14:38:48.352Z,25.40
2019-04-22T14:41:35.771Z,25.50
2019-04-22T14:44:49.588Z,24.90
2019-04-22T14:46:53.590Z,24.80
2019-04-22T14:49:10.638Z,24.40
2019-04-22T14:51:42.800Z,25.40
2019-04-22T14:54:05.336Z,25.50
2019-04-22T14:56:20.171Z,25.40
2019-04-22T14:58:49.129Z,25.70
2019-04-22T15:01:19.080Z,26.40
2019-04-22T15:03:48.387Z,25.80
2019-04-22T15:06:18.168Z,26.00
2019-04-22T15:08:47.069Z,24.60
2019-04-22T15:11:17.105Z,24.90
2019-04-22T15:13:47.166Z,24.60
2019-04-22T15:16:23.802Z,24.80
2019-04-22T15:19:04.091Z,25.60
2019-04-22T15:21:32.733Z,25.00
2019-04-22T15:24:04.508Z,24.50
2019-04-22T15:26:34.387Z,24.70
2019-04-22T15:29:03.232Z,24.80
2019-04-22T15:31:31.784Z,25.20
2019-04-22T15:34:02.669Z,25.30
2019-04-22T15:36:32.411Z,25.20
2019-04-22T15:39:02.855Z,24.90
2019-04-22T15:41:32.668Z,25.90
2019-04-22T15:44:01.848Z,26.30
2019-04-22T15:46:31.929Z,26.10
2019-04-22T15:49:01.990Z,26.50
2019-04-22T15:51:31.643Z,26.20
2019-04-22T15:54:01.368Z,27.20
2019-04-22T15:56:30.709Z,27.50
2019-04-22T15:58:59.747Z,27.70
2019-04-22T16:01:33.423Z,27.90
2019-04-22T16:03:58.921Z,28.50
2019-04-22T16:06:28.066Z,28.90
2019-04-22T16:08:59.665Z,29.10
2019-04-22T16:11:27.686Z,29.40
2019-04-22T16:13:57.184Z,29.30
2019-04-22T16:16:25.897Z,29.30
2019-04-22T16:18:54.649Z,29.30
2019-04-22T16:21:33.832Z,29.90
2019-04-22T16:24:02.611Z,30.20
2019-04-22T16:26:40.165Z,30.60
2019-04-22T16:29:11.674Z,30.50
2019-04-22T16:31:40.255Z,31.30
2019-04-22T16:34:09.495Z,31.50
2019-04-22T16:36:38.800Z,31.70
2019-04-22T16:39:11.008Z,32.30
2019-04-22T16:41:39.681Z,32.20
2019-04-22T16:44:09.056Z,32.60
2019-04-22T16:46:37.680Z,33.10
2019-04-22T16:49:07.574Z,33.20
2019-04-22T16:51:36.241Z,33.40
2019-04-22T16:54:06.470Z,33.30
2019-04-22T16:56:37.098Z,33.00
2019-04-22T16:59:06.672Z,33.20
2019-04-22T17:04:20.797Z,33.40
2019-04-22T17:06:50.868Z,33.80
2019-04-22T17:09:19.817Z,34.10
2019-04-22T17:11:49.886Z,34.40
2019-04-22T17:14:27.245Z,34.50
2019-04-22T17:16:50.616Z,34.90
2019-04-22T17:19:19.540Z,34.70
2019-04-22T17:21:49.839Z,35.20
2019-04-22T17:24:19.496Z,35.40
2019-04-22T17:26:48.500Z,35.90
2019-04-22T17:29:18.576Z,35.90
2019-04-22T17:31:50.961Z,36.00
2019-04-22T17:34:17.856Z,36.10
2019-04-22T17:36:46.421Z,36.30
2019-04-22T17:39:47.789Z,36.30
2019-04-22T17:42:25.395Z,36.40
2019-04-22T17:45:03.152Z,36.90
2019-04-22T17:47:28.766Z,37.10
2019-04-22T17:50:10.058Z,37.10
2019-04-22T17:52:38.914Z,37.50
2019-04-22T17:55:07.573Z,37.90
2019-04-22T17:57:33.017Z,38.40
2019-04-22T18:00:06.186Z,38.50
2019-04-22T18:02:35.693Z,39.00
2019-04-22T18:04:53.895Z,39.00
2019-04-22T18:07:38.604Z,38.60
2019-04-22T18:12:43.828Z,39.30
2019-04-22T18:15:10.060Z,39.50
2019-04-22T18:17:41.254Z,39.70
2019-04-22T18:20:04.334Z,40.10
2019-04-22T18:22:33.071Z,40.30
2019-04-22T18:25:03.506Z,40.50
2019-04-22T18:27:47.243Z,41.00
2019-04-22T18:30:03.919Z,41.10
2019-04-22T18:32:38.186Z,41.10
2019-04-22T18:35:11.812Z,41.20
2019-04-22T18:37:46.978Z,41.90
2019-04-22T18:40:15.099Z,41.30
2019-04-22T18:42:45.785Z,41.50
2019-04-22T18:45:29.687Z,41.70
2019-04-22T18:47:38.960Z,42.00
2019-04-22T18:50:10.585Z,42.50
2019-04-22T18:52:49.282Z,42.30
2019-04-22T18:55:22.108Z,43.30
2019-04-22T18:57:53.443Z,42.80
2019-04-22T19:00:23.102Z,43.10
2019-04-22T19:02:58.963Z,43.30
2019-04-22T19:05:43.772Z,43.50
2019-04-22T19:15:59.453Z,44.00
2019-04-22T19:18:24.456Z,44.30
2019-04-22T19:20:51.839Z,44.60
2019-04-22T19:23:24.214Z,44.80
2019-04-22T19:25:42.350Z,45.00
2019-04-22T19:28:27.660Z,44.90
2019-04-22T19:30:56.776Z,45.10
2019-04-22T19:33:23.921Z,45.30
2019-04-22T19:35:43.543Z,45.20
2019-04-22T19:38:13.269Z,45.10
2019-04-22T19:41:00.626Z,45.30
2019-04-22T19:43:22.930Z,45.00
2019-04-22T19:45:48.350Z,45.30
2019-04-22T19:48:32.945Z,45.20
2019-04-22T19:51:15.813Z,44.90
2019-04-22T19:53:47.079Z,44.80
2019-04-22T19:56:11.490Z,45.00
2019-04-22T19:58:37.463Z,45.00
2019-04-22T20:01:31.486Z,45.40
2019-04-22T20:04:19.794Z,45.00
2019-04-22T20:06:45.574Z,45.00
2019-04-22T20:09:20.623Z,45.10
2019-04-22T20:11:43.685Z,45.50
2019-04-22T20:14:17.057Z,45.70
2019-04-22T20:16:37.510Z,45.90
2019-04-22T20:19:19.238Z,45.90
2019-04-22T20:21:50.144Z,46.10
2019-04-22T20:24:06.684Z,46.70
2019-04-22T20:26:49.973Z,46.70
2019-04-22T20:29:24.303Z,46.90
2019-04-22T20:31:49.715Z,47.00
2019-04-22T20:34:22.374Z,47.00
2019-04-22T20:39:20.391Z,47.40
2019-04-22T20:41:54.974Z,47.70
2019-04-22T20:44:30.709Z,48.20
2019-04-22T20:46:48.890Z,48.50
2019-04-22T20:49:30.580Z,49.00
2019-04-22T20:54:22.982Z,49.80
2019-04-22T20:56:53.339Z,50.40
2019-04-22T20:59:23.975Z,50.70
2019-04-22T21:01:55.323Z,50.80
2019-04-22T21:04:19.792Z,51.10
2019-04-22T21:07:01.148Z,51.60
2019-04-22T21:09:27.316Z,51.90
2019-04-22T21:11:56.540Z,52.30
2019-04-22T21:14:27.472Z,52.40
2019-04-22T21:17:00.758Z,52.60
2019-04-22T21:19:41.681Z,52.70
2019-04-22T21:22:03.704Z,52.90
2019-04-22T21:24:32.759Z,53.40
2019-04-22T21:27:08.186Z,54.10
2019-04-22T21:29:28.124Z,54.10
2019-04-22T21:32:01.296Z,54.60
2019-04-22T21:34:39.083Z,54.80
2019-04-22T21:37:07.635Z,55.20
2019-04-22T21:39:30.788Z,55.50
2019-04-22T21:41:58.831Z,55.90
2019-04-22T21:44:32.702Z,56.20
2019-04-22T21:47:12.177Z,56.70
2019-04-22T21:49:35.899Z,57.00
2019-04-22T21:52:07.886Z,57.30
2019-04-22T21:54:42.957Z,57.50
2019-04-22T21:57:19.011Z,57.50
2019-04-22T21:59:35.782Z,57.60
2019-04-22T22:04:49.059Z,57.90
2019-04-22T22:07:07.437Z,58.00
2019-04-22T22:09:47.518Z,57.80
2019-04-22T22:12:18.208Z,58.00
2019-04-22T22:15:00.358Z,58.20
2019-04-22T22:17:22.579Z,58.50
2019-04-22T22:19:54.509Z,58.60
2019-04-22T22:22:42.112Z,58.60
2019-04-22T22:24:58.347Z,58.80
2019-04-22T22:27:28.286Z,59.00
2019-04-22T22:30:06.847Z,59.20
2019-04-22T22:32:32.444Z,59.30
2019-04-22T22:35:01.745Z,59.60
2019-04-22T22:37:22.112Z,59.80
2019-04-22T22:39:48.437Z,59.90
2019-04-22T22:42:17.774Z,60.70
2019-04-22T22:44:44.677Z,60.50
2019-04-22T22:47:30.055Z,61.00
2019-04-22T22:50:05.899Z,61.10
2019-04-22T22:52:51.777Z,61.70
2019-04-22T22:55:06.916Z,62.10
2019-04-22T22:57:39.939Z,62.30
2019-04-22T23:00:02.133Z,62.60
2019-04-22T23:02:45.155Z,63.10
2019-04-22T23:05:04.202Z,63.50
2019-04-22T23:07:37.531Z,63.60
2019-04-22T23:10:05.037Z,64.20
2019-04-22T23:12:46.537Z,64.20
2019-04-22T23:15:07.879Z,64.70
2019-04-22T23:17:23.568Z,65.40
2019-04-22T23:19:50.340Z,65.40
2019-04-22T23:22:23.480Z,65.60
2019-04-22T23:25:07.744Z,65.80
2019-04-22T23:27:38.784Z,66.00
2019-04-22T23:30:06.553Z,66.20
2019-04-22T23:32:35.497Z,66.90
2019-04-22T23:35:19.111Z,67.80
2019-04-22T23:37:47.623Z,67.40
2019-04-22T23:40:22.067Z,68.50
2019-04-22T23:42:56.399Z,68.10
2019-04-22T23:45:21.444Z,68.30
2019-04-22T23:47:41.148Z,68.50
2019-04-22T23:50:24.437Z,68.50
2019-04-22T23:52:53.347Z,68.70
2019-04-22T23:55:26.043Z,69.00
2019-04-22T23:57:56.780Z,69.20
